createdAt,value
2018-08-08T00:00:01.316Z,1001.68
2018-08-08T00:01:01.316Z,1001.70
2018-08-08T00:02:57.790Z,1001.66
2018-08-08T00:03:57.282Z,1001.63
2018-08-08T00:06:14.266Z,1001.58
2018-08-08T00:07:51.043Z,1001.58
2018-08-08T00:08:51.056Z,1001.54
2018-08-08T00:10:47.531Z,1001.50
2018-08-08T00:11:47.011Z,1001.53
2018-08-08T00:13:44.480Z,1001.48
2018-08-08T00:14:42.977Z,1001.51
2018-08-08T00:16:38.940Z,1001.55
2018-08-08T00:17:38.964Z,1001.55
2018-08-08T00:19:34.954Z,1001.58
2018-08-08T00:20:35.917Z,1001.62
2018-08-08T00:22:30.876Z,1001.63
2018-08-08T00:23:30.891Z,1001.69
2018-08-08T00:25:25.867Z,1001.70
2018-08-08T00:26:25.875Z,1001.65
2018-08-08T00:28:23.286Z,1001.65
2018-08-08T00:29:23.300Z,1001.70
2018-08-08T00:31:19.280Z,1001.74
2018-08-08T00:32:19.276Z,1001.75
2018-08-08T00:34:15.685Z,1001.74
2018-08-08T00:35:16.257Z,1001.75
2018-08-08T00:37:11.647Z,1001.73
2018-08-08T00:38:11.662Z,1001.76
2018-08-08T00:40:07.701Z,1001.79
2018-08-08T00:41:07.650Z,1001.82
2018-08-08T00:43:03.608Z,1001.81
2018-08-08T00:44:03.630Z,1001.80
2018-08-08T00:45:59.585Z,1001.76
2018-08-08T00:47:00.075Z,1001.73
2018-08-08T00:48:56.021Z,1001.75
2018-08-08T00:49:55.502Z,1001.71
2018-08-08T00:51:51.444Z,1001.73
2018-08-08T00:52:51.975Z,1001.75
2018-08-08T00:54:47.440Z,1001.73
2018-08-08T00:55:47.419Z,1001.71
2018-08-08T00:57:43.400Z,1001.73
2018-08-08T00:58:43.389Z,1001.73
2018-08-08T01:00:39.350Z,1001.75
2018-08-08T01:01:39.342Z,1001.78
2018-08-08T01:03:35.315Z,1001.82
2018-08-08T01:04:35.309Z,1001.81
2018-08-08T01:06:29.827Z,1002.18
2018-08-08T01:07:30.810Z,1003.04
2018-08-08T01:09:24.259Z,1003.49
2018-08-08T01:10:24.260Z,1003.31
2018-08-08T01:12:20.732Z,1003.44
2018-08-08T01:13:20.231Z,1003.46
2018-08-08T01:15:16.163Z,1003.66
2018-08-08T01:16:16.172Z,1003.59
2018-08-08T01:18:12.206Z,1003.44
2018-08-08T01:19:12.139Z,1003.45
2018-08-08T01:21:08.100Z,1003.50
2018-08-08T01:22:08.097Z,1003.50
2018-08-08T01:24:04.050Z,1003.53
2018-08-08T01:25:04.056Z,1003.53
2018-08-08T01:27:00.051Z,1003.38
2018-08-08T01:28:00.038Z,1003.37
2018-08-08T01:29:59.001Z,1003.25
2018-08-08T01:30:58.184Z,1003.28
2018-08-08T01:32:55.164Z,1003.31
2018-08-08T01:33:55.150Z,1003.35
2018-08-08T01:35:54.615Z,1003.29
2018-08-08T01:36:53.256Z,1003.31
2018-08-08T01:38:51.257Z,1003.33
2018-08-08T01:39:51.723Z,1003.36
2018-08-08T01:41:47.194Z,1003.35
2018-08-08T01:42:47.199Z,1003.38
2018-08-08T01:44:43.187Z,1003.31
2018-08-08T01:45:43.261Z,1003.34
2018-08-08T01:47:41.619Z,1003.34
2018-08-08T01:48:39.140Z,1003.38
2018-08-08T01:50:35.132Z,1003.40
2018-08-08T01:51:35.587Z,1003.46
2018-08-08T01:53:31.086Z,1003.54
2018-08-08T01:54:31.064Z,1003.54
2018-08-08T01:56:27.033Z,1003.51
2018-08-08T01:57:27.026Z,1003.46
2018-08-08T01:59:23.004Z,1003.46
2018-08-08T02:00:23.002Z,1003.44
2018-08-08T02:02:18.970Z,1003.45
2018-08-08T02:03:18.960Z,1003.46
2018-08-08T02:05:14.925Z,1003.37
2018-08-08T02:06:14.894Z,1003.29
2018-08-08T02:08:10.844Z,1003.27
2018-08-08T02:09:10.856Z,1003.21
2018-08-08T02:11:06.754Z,1003.18
2018-08-08T02:12:05.310Z,1003.19
2018-08-08T02:14:01.796Z,1003.15
2018-08-08T02:15:01.271Z,1003.05
2018-08-08T02:16:58.250Z,1002.86
2018-08-08T02:17:58.240Z,1002.78
2018-08-08T02:19:53.230Z,1002.65
2018-08-08T02:20:54.223Z,1002.59
2018-08-08T02:22:50.186Z,1002.53
2018-08-08T02:23:49.173Z,1002.57
2018-08-08T02:25:45.695Z,1002.68
2018-08-08T02:26:45.115Z,1002.73
2018-08-08T02:28:41.600Z,1002.65
2018-08-08T02:29:41.096Z,1002.63
2018-08-08T02:31:39.069Z,1002.66
2018-08-08T02:32:39.572Z,1002.68
2018-08-08T02:34:35.027Z,1002.57
2018-08-08T02:35:35.035Z,1002.51
2018-08-08T02:37:31.055Z,1002.41
2018-08-08T02:38:31.042Z,1002.30
2018-08-08T02:40:27.033Z,1002.25
2018-08-08T02:41:26.997Z,1002.19
2018-08-08T02:43:22.969Z,1002.24
2018-08-08T02:44:22.992Z,1002.27
2018-08-08T02:46:18.963Z,1002.32
2018-08-08T02:47:18.932Z,1002.34
2018-08-08T02:49:14.913Z,1002.27
2018-08-08T02:50:14.910Z,1002.27
2018-08-08T02:52:10.909Z,1002.38
2018-08-08T02:53:10.906Z,1002.39
2018-08-08T02:55:06.851Z,1002.43
2018-08-08T02:56:06.854Z,1002.49
2018-08-08T02:58:02.830Z,1002.51
2018-08-08T02:59:02.835Z,1002.57
2018-08-08T03:00:58.819Z,1002.60
2018-08-08T03:01:58.812Z,1002.61
2018-08-08T03:03:54.774Z,1002.62
2018-08-08T03:04:54.749Z,1002.65
2018-08-08T03:06:51.724Z,1002.53
2018-08-08T03:07:50.742Z,1002.47
2018-08-08T03:09:48.869Z,1002.39
2018-08-08T03:10:48.867Z,1002.43
2018-08-08T03:12:44.835Z,1002.65
2018-08-08T03:13:44.837Z,1002.60
2018-08-08T03:15:41.304Z,1002.58
2018-08-08T03:16:40.791Z,1002.51
2018-08-08T03:18:36.764Z,1002.57
2018-08-08T03:19:37.301Z,1002.60
2018-08-08T03:21:33.214Z,1002.50
2018-08-08T03:22:33.234Z,1002.49
2018-08-08T03:24:30.198Z,1002.60
2018-08-08T03:25:29.678Z,1002.70
2018-08-08T03:27:24.697Z,1002.83
2018-08-08T03:28:25.162Z,1002.89
2018-08-08T03:30:22.619Z,1003.00
2018-08-08T03:31:23.133Z,1003.01
2018-08-08T03:33:18.600Z,1003.03
2018-08-08T03:34:19.095Z,1003.07
2018-08-08T03:36:16.555Z,1003.22
2018-08-08T03:37:15.556Z,1003.23
2018-08-08T03:39:12.557Z,1003.30
2018-08-08T03:40:12.553Z,1003.37
2018-08-08T03:42:08.512Z,1003.67
2018-08-08T03:43:09.014Z,1003.87
2018-08-08T03:45:04.952Z,1004.16
2018-08-08T03:46:04.425Z,1004.23
2018-08-08T03:48:00.410Z,1004.51
2018-08-08T03:49:00.407Z,1004.59
2018-08-08T03:50:56.342Z,1004.74
2018-08-08T03:51:57.859Z,1004.80
2018-08-08T03:53:52.296Z,1005.09
2018-08-08T03:54:52.312Z,1005.20
2018-08-08T03:56:48.272Z,1005.40
2018-08-08T03:57:48.357Z,1005.39
2018-08-08T03:59:44.284Z,1005.39
2018-08-08T04:00:44.737Z,1005.40
2018-08-08T04:02:41.260Z,1005.45
2018-08-08T04:03:41.214Z,1005.45
2018-08-08T04:05:33.733Z,1005.33
2018-08-08T04:06:33.695Z,1005.37
2018-08-08T04:08:30.177Z,1005.52
2018-08-08T04:09:29.700Z,1005.61
2018-08-08T04:11:24.169Z,1005.77
2018-08-08T04:12:25.147Z,1005.83
2018-08-08T04:14:21.628Z,1005.90
2018-08-08T04:15:20.706Z,1005.94
2018-08-08T04:17:16.722Z,1006.09
2018-08-08T04:18:16.657Z,1006.14
2018-08-08T04:20:12.644Z,1006.35
2018-08-08T04:21:12.627Z,1006.38
2018-08-08T04:23:08.611Z,1006.57
2018-08-08T04:24:09.135Z,1006.65
2018-08-08T04:26:06.546Z,1006.69
2018-08-08T04:27:06.561Z,1006.68
2018-08-08T04:29:05.018Z,1006.68
2018-08-08T04:30:05.014Z,1006.80
2018-08-08T04:32:01.492Z,1006.92
2018-08-08T04:33:01.402Z,1007.03
2018-08-08T04:34:57.276Z,1007.20
2018-08-08T04:35:55.891Z,1007.31
2018-08-08T04:37:51.847Z,1007.41
2018-08-08T04:38:51.831Z,1007.47
2018-08-08T04:40:50.792Z,1007.54
2018-08-08T04:41:45.290Z,1007.59
2018-08-08T04:43:41.898Z,1007.61
2018-08-08T04:44:42.178Z,1007.62
2018-08-08T04:46:37.191Z,1007.54
2018-08-08T04:47:37.212Z,1007.54
2018-08-08T04:49:34.176Z,1007.50
2018-08-08T04:50:33.362Z,1007.50
2018-08-08T04:52:29.836Z,1007.42
2018-08-08T04:53:29.324Z,1007.36
2018-08-08T04:55:25.300Z,1007.44
2018-08-08T04:56:25.253Z,1007.32
2018-08-08T04:58:21.227Z,1007.29
2018-08-08T04:59:21.716Z,1007.23
2018-08-08T05:01:18.183Z,1007.18
2018-08-08T05:02:18.617Z,1007.12
2018-08-08T05:04:13.133Z,1007.08
2018-08-08T05:05:14.059Z,1006.99
2018-08-08T05:07:12.699Z,1007.00
2018-08-08T05:08:15.607Z,1006.95
2018-08-08T05:10:24.962Z,1006.85
2018-08-08T05:11:13.268Z,1006.84
2018-08-08T05:13:12.120Z,1006.69
2018-08-08T05:14:09.639Z,1006.71
2018-08-08T05:16:07.599Z,1006.44
2018-08-08T05:17:07.031Z,1006.35
2018-08-08T05:19:13.431Z,1005.93
2018-08-08T05:20:12.787Z,1005.81
2018-08-08T05:22:11.695Z,1005.53
2018-08-08T05:23:11.614Z,1005.44
2018-08-08T05:26:07.536Z,1005.26
2018-08-08T05:28:05.684Z,1005.48
2018-08-08T05:29:07.936Z,1005.48
2018-08-08T05:31:05.561Z,1005.44
2018-08-08T05:32:05.057Z,1005.45
2018-08-08T05:34:00.504Z,1005.53
2018-08-08T05:35:01.009Z,1005.48
2018-08-08T05:36:59.103Z,1005.55
2018-08-08T05:37:58.538Z,1005.56
2018-08-08T05:39:56.507Z,1005.55
2018-08-08T05:40:56.507Z,1005.54
2018-08-08T05:42:55.019Z,1005.56
2018-08-08T05:43:54.451Z,1005.50
2018-08-08T05:45:50.414Z,1005.50
2018-08-08T05:46:51.913Z,1005.53
2018-08-08T05:48:48.385Z,1005.53
2018-08-08T05:49:46.380Z,1005.58
2018-08-08T05:51:42.316Z,1005.68
2018-08-08T05:52:42.320Z,1005.67
2018-08-08T05:54:40.271Z,1005.72
2018-08-08T05:55:41.267Z,1005.69
2018-08-08T05:57:40.777Z,1005.68
2018-08-08T05:58:40.743Z,1005.61
2018-08-08T06:00:38.702Z,1005.59
2018-08-08T06:01:36.702Z,1005.57
2018-08-08T06:03:33.662Z,1005.53
2018-08-08T06:05:48.657Z,1005.55
2018-08-08T06:06:48.599Z,1005.54
2018-08-08T06:08:47.105Z,1005.56
2018-08-08T06:09:47.502Z,1005.50
2018-08-08T06:11:43.231Z,1005.48
2018-08-08T06:12:42.691Z,1005.47
2018-08-08T06:14:40.682Z,1005.45
2018-08-08T06:15:41.669Z,1005.48
2018-08-08T06:17:36.613Z,1005.43
2018-08-08T06:18:36.606Z,1005.37
2018-08-08T06:20:35.108Z,1005.22
2018-08-08T06:21:34.557Z,1005.20
2018-08-08T06:23:31.545Z,1005.06
2018-08-08T06:24:31.528Z,1004.97
2018-08-08T06:26:27.538Z,1004.95
2018-08-08T06:27:28.539Z,1004.92
2018-08-08T06:29:23.967Z,1004.82
2018-08-08T06:30:23.470Z,1004.82
2018-08-08T06:32:19.571Z,1004.80
2018-08-08T06:33:19.438Z,1004.78
2018-08-08T06:35:15.921Z,1004.74
2018-08-08T06:36:15.374Z,1004.72
2018-08-08T06:38:11.736Z,1004.73
2018-08-08T06:39:11.311Z,1004.76
2018-08-08T06:41:09.790Z,1004.78
2018-08-08T06:42:08.286Z,1004.85
2018-08-08T06:44:03.235Z,1004.88
2018-08-08T06:45:03.250Z,1004.92
2018-08-08T06:47:01.198Z,1004.94
2018-08-08T06:48:00.197Z,1004.91
2018-08-08T06:49:56.216Z,1005.04
2018-08-08T06:50:55.163Z,1005.07
2018-08-08T06:52:51.111Z,1005.15
2018-08-08T06:53:51.114Z,1005.10
2018-08-08T06:55:47.107Z,1005.15
2018-08-08T06:56:47.587Z,1005.16
2018-08-08T06:58:44.047Z,1005.27
2018-08-08T06:59:44.048Z,1005.32
2018-08-08T07:01:39.473Z,1005.35
2018-08-08T07:02:39.130Z,1005.45
2018-08-08T07:04:37.139Z,1005.48
2018-08-08T07:05:36.318Z,1005.49
2018-08-08T07:07:31.255Z,1005.51
2018-08-08T07:08:30.749Z,1005.57
2018-08-08T07:10:28.220Z,1005.61
2018-08-08T07:11:27.226Z,1005.65
2018-08-08T07:13:24.170Z,1005.70
2018-08-08T07:14:23.781Z,1005.65
2018-08-08T07:16:19.236Z,1005.67
2018-08-08T07:17:18.639Z,1005.69
2018-08-08T07:19:14.606Z,1005.67
2018-08-08T07:20:14.573Z,1005.64
2018-08-08T07:22:10.537Z,1005.61
2018-08-08T07:23:10.551Z,1005.65
2018-08-08T07:25:07.005Z,1005.67
2018-08-08T07:26:06.551Z,1005.62
2018-08-08T07:28:03.370Z,1005.59
2018-08-08T07:29:03.353Z,1005.54
2018-08-08T07:31:01.817Z,1005.47
2018-08-08T07:32:02.320Z,1005.44
2018-08-08T07:33:57.785Z,1005.43
2018-08-08T07:34:57.289Z,1005.42
2018-08-08T07:36:53.241Z,1005.37
2018-08-08T07:37:53.246Z,1005.34
2018-08-08T07:39:49.533Z,1005.26
2018-08-08T07:40:49.536Z,1005.22
2018-08-08T07:42:45.522Z,1005.20
2018-08-08T07:43:45.493Z,1005.24
2018-08-08T07:45:41.994Z,1005.28
2018-08-08T07:46:41.452Z,1005.30
2018-08-08T07:48:37.381Z,1005.29
2018-08-08T07:49:37.398Z,1005.29
2018-08-08T07:51:47.417Z,1005.34
2018-08-08T07:52:47.328Z,1005.35
2018-08-08T07:54:43.277Z,1005.44
2018-08-08T07:55:41.408Z,1005.39
2018-08-08T07:57:36.680Z,1005.43
2018-08-08T07:58:36.743Z,1005.43
2018-08-08T08:00:36.129Z,1005.51
2018-08-08T08:01:35.409Z,1005.54
2018-08-08T08:03:31.399Z,1005.64
2018-08-08T08:04:31.391Z,1005.66
2018-08-08T08:06:27.327Z,1005.67
2018-08-08T08:07:27.386Z,1005.66
2018-08-08T08:09:25.316Z,1005.62
2018-08-08T08:10:23.359Z,1005.59
2018-08-08T08:12:20.324Z,1005.67
2018-08-08T08:13:19.336Z,1005.68
2018-08-08T08:15:16.808Z,1005.73
2018-08-08T08:16:15.305Z,1005.73
2018-08-08T08:18:12.691Z,1005.75
2018-08-08T08:19:11.278Z,1005.81
2018-08-08T08:21:07.717Z,1005.87
2018-08-08T08:22:07.210Z,1005.91
2018-08-08T08:24:05.366Z,1005.98
2018-08-08T08:25:05.362Z,1006.04
2018-08-08T08:27:01.311Z,1006.09
2018-08-08T08:28:01.324Z,1006.05
2018-08-08T08:29:57.971Z,1006.05
2018-08-08T08:30:57.282Z,1006.09
2018-08-08T08:32:53.270Z,1006.12
2018-08-08T08:33:53.400Z,1006.15
2018-08-08T08:35:51.439Z,1006.23
2018-08-08T08:36:52.865Z,1006.20
2018-08-08T08:38:50.615Z,1006.26
2018-08-08T08:39:50.259Z,1006.31
2018-08-08T08:41:47.957Z,1006.39
2018-08-08T08:42:48.355Z,1006.42
2018-08-08T08:44:49.338Z,1006.41
2018-08-08T08:45:48.851Z,1006.46
2018-08-08T08:47:44.458Z,1006.53
2018-08-08T08:48:43.947Z,1006.54
2018-08-08T08:50:39.912Z,1006.60
2018-08-08T08:51:39.910Z,1006.62
2018-08-08T08:53:36.940Z,1006.57
2018-08-08T08:54:36.795Z,1006.60
2018-08-08T08:56:37.430Z,1006.66
2018-08-08T08:57:37.789Z,1006.71
2018-08-08T08:59:35.290Z,1006.67
2018-08-08T09:00:34.802Z,1006.69
2018-08-08T09:02:31.327Z,1006.78
2018-08-08T09:03:30.750Z,1006.76
2018-08-08T09:05:27.237Z,1006.77
2018-08-08T09:06:26.699Z,1006.77
2018-08-08T09:08:23.850Z,1006.79
2018-08-08T09:09:22.702Z,1006.85
2018-08-08T09:11:17.155Z,1006.86
2018-08-08T09:12:17.189Z,1006.79
2018-08-08T09:14:11.610Z,1006.84
2018-08-08T09:15:10.724Z,1006.88
2018-08-08T09:17:05.099Z,1006.97
2018-08-08T09:18:05.108Z,1006.97
2018-08-08T09:19:59.595Z,1007.00
2018-08-08T09:20:59.590Z,1007.01
2018-08-08T09:22:54.050Z,1007.04
2018-08-08T09:23:54.075Z,1007.08
2018-08-08T09:25:50.188Z,1007.17
2018-08-08T09:26:49.987Z,1007.15
2018-08-08T09:28:45.971Z,1007.21
2018-08-08T09:29:45.991Z,1007.20
2018-08-08T09:31:41.917Z,1007.19
2018-08-08T09:32:41.931Z,1007.20
2018-08-08T09:34:36.905Z,1007.27
2018-08-08T09:35:36.432Z,1007.23
2018-08-08T09:37:30.900Z,1007.22
2018-08-08T09:38:31.397Z,1007.25
2018-08-08T09:40:25.331Z,1007.31
2018-08-08T09:41:24.825Z,1007.30
2018-08-08T09:43:20.830Z,1007.33
2018-08-08T09:44:20.818Z,1007.37
2018-08-08T09:46:16.448Z,1007.40
2018-08-08T09:47:17.261Z,1007.43
2018-08-08T09:49:12.511Z,1007.46
2018-08-08T09:50:12.416Z,1007.51
2018-08-08T09:52:10.430Z,1007.45
2018-08-08T09:53:10.384Z,1007.49
2018-08-08T09:55:07.845Z,1007.54
2018-08-08T09:56:06.836Z,1007.55
2018-08-08T09:58:01.287Z,1007.58
2018-08-08T09:59:00.745Z,1007.63
2018-08-08T10:00:56.740Z,1007.62
2018-08-08T10:01:55.776Z,1007.58
2018-08-08T10:03:53.290Z,1007.61
2018-08-08T10:04:51.736Z,1007.59
2018-08-08T10:06:47.729Z,1007.63
2018-08-08T10:07:47.729Z,1007.61
2018-08-08T10:09:43.711Z,1007.67
2018-08-08T10:10:43.695Z,1007.61
2018-08-08T10:12:39.165Z,1007.65
2018-08-08T10:13:39.096Z,1007.63
2018-08-08T10:15:34.663Z,1007.66
2018-08-08T10:16:34.150Z,1007.68
2018-08-08T10:18:30.615Z,1007.65
2018-08-08T10:19:30.238Z,1007.70
2018-08-08T10:21:26.088Z,1007.75
2018-08-08T10:22:26.069Z,1007.69
2018-08-08T10:24:20.552Z,1007.81
2018-08-08T10:25:20.558Z,1007.78
2018-08-08T10:27:18.025Z,1007.85
2018-08-08T10:28:16.565Z,1007.85
2018-08-08T10:30:12.563Z,1007.89
2018-08-08T10:31:12.522Z,1007.89
2018-08-08T10:33:06.036Z,1007.92
2018-08-08T10:34:06.032Z,1007.92
2018-08-08T10:36:01.000Z,1007.86
2018-08-08T10:37:00.510Z,1007.78
2018-08-08T10:38:54.981Z,1007.81
2018-08-08T10:39:54.998Z,1007.84
2018-08-08T10:41:48.460Z,1007.88
2018-08-08T10:42:48.424Z,1007.93
2018-08-08T10:44:44.392Z,1007.95
2018-08-08T10:45:44.413Z,1007.91
2018-08-08T10:47:38.880Z,1007.94
2018-08-08T10:48:38.873Z,1007.89
2018-08-08T10:50:34.342Z,1007.85
2018-08-08T10:51:34.345Z,1007.81
2018-08-08T10:53:27.826Z,1007.82
2018-08-08T10:54:28.830Z,1007.81
2018-08-08T10:56:24.342Z,1007.83
2018-08-08T10:57:23.778Z,1007.89
2018-08-08T10:59:18.254Z,1007.82
2018-08-08T11:00:18.749Z,1007.84
2018-08-08T11:02:14.727Z,1007.93
2018-08-08T11:03:14.293Z,1007.93
2018-08-08T11:05:13.336Z,1007.94
2018-08-08T11:06:10.165Z,1007.94
2018-08-08T11:08:04.145Z,1008.02
2018-08-08T11:09:03.658Z,1008.03
2018-08-08T11:10:58.106Z,1008.01
2018-08-08T11:11:59.617Z,1007.98
2018-08-08T11:13:54.085Z,1008.11
2018-08-08T11:14:54.065Z,1008.16
2018-08-08T11:16:49.037Z,1008.17
2018-08-08T11:17:48.541Z,1008.17
2018-08-08T11:19:56.149Z,1008.25
2018-08-08T11:20:56.155Z,1008.26
2018-08-08T11:22:52.120Z,1008.29
2018-08-08T11:23:51.188Z,1008.29
2018-08-08T11:25:48.038Z,1008.31
2018-08-08T11:26:47.013Z,1008.29
2018-08-08T11:28:42.987Z,1008.33
2018-08-08T11:29:42.959Z,1008.39
2018-08-08T11:31:38.924Z,1008.37
2018-08-08T11:32:37.421Z,1008.36
2018-08-08T11:34:34.400Z,1008.40
2018-08-08T11:35:34.236Z,1008.41
2018-08-08T11:37:28.726Z,1008.41
2018-08-08T11:38:29.716Z,1008.39
2018-08-08T11:40:23.205Z,1008.44
2018-08-08T11:41:23.205Z,1008.45
2018-08-08T11:43:19.687Z,1008.49
2018-08-08T11:44:19.181Z,1008.50
2018-08-08T11:46:13.640Z,1008.51
2018-08-08T11:47:13.644Z,1008.49
2018-08-08T11:49:09.604Z,1008.54
2018-08-08T11:50:09.646Z,1008.55
2018-08-08T11:52:06.596Z,1008.59
2018-08-08T11:53:05.569Z,1008.56
2018-08-08T11:55:03.051Z,1008.60
2018-08-08T11:56:01.529Z,1008.65
2018-08-08T11:57:55.978Z,1008.68
2018-08-08T11:58:56.483Z,1008.70
2018-08-08T12:00:51.948Z,1008.69
2018-08-08T12:01:52.481Z,1008.66
2018-08-08T12:03:45.391Z,1008.66
2018-08-08T12:04:45.906Z,1008.65
2018-08-08T12:06:39.883Z,1008.63
2018-08-08T12:07:39.861Z,1008.75
2018-08-08T12:09:34.847Z,1008.79
2018-08-08T12:10:34.319Z,1008.77
2018-08-08T12:12:30.328Z,1008.72
2018-08-08T12:13:30.308Z,1008.72
2018-08-08T12:15:27.295Z,1008.77
2018-08-08T12:16:26.760Z,1008.82
2018-08-08T12:18:21.205Z,1008.78
2018-08-08T12:19:21.214Z,1008.77
2018-08-08T12:21:17.190Z,1008.81
2018-08-08T12:22:17.185Z,1008.79
2018-08-08T12:24:14.639Z,1008.83
2018-08-08T12:25:13.147Z,1008.87
2018-08-08T12:27:07.121Z,1008.87
2018-08-08T12:28:06.613Z,1008.84
2018-08-08T12:30:02.638Z,1008.81
2018-08-08T12:31:02.603Z,1008.82
2018-08-08T12:32:57.309Z,1008.88
2018-08-08T12:33:57.252Z,1008.90
2018-08-08T12:35:53.207Z,1008.94
2018-08-08T12:36:53.733Z,1008.87
2018-08-08T12:38:47.692Z,1008.94
2018-08-08T12:39:47.643Z,1008.88
2018-08-08T12:41:43.114Z,1008.92
2018-08-08T12:42:42.175Z,1008.92
2018-08-08T12:44:38.074Z,1008.97
2018-08-08T12:45:38.593Z,1009.00
2018-08-08T12:47:36.050Z,1008.97
2018-08-08T12:48:34.066Z,1008.96
2018-08-08T12:50:27.536Z,1008.95
2018-08-08T12:51:27.543Z,1009.01
2018-08-08T12:53:23.526Z,1008.97
2018-08-08T12:54:21.999Z,1009.02
2018-08-08T12:56:16.965Z,1009.04
2018-08-08T12:57:16.456Z,1008.99
2018-08-08T12:59:13.926Z,1008.99
2018-08-08T13:00:12.549Z,1008.94
2018-08-08T13:02:06.938Z,1008.94
2018-08-08T13:03:06.891Z,1009.00
2018-08-08T13:05:01.518Z,1008.99
2018-08-08T13:06:01.534Z,1008.94
2018-08-08T13:07:57.512Z,1008.99
2018-08-08T13:08:57.489Z,1009.00
2018-08-08T13:10:53.483Z,1009.00
2018-08-08T13:11:53.476Z,1008.99
2018-08-08T13:13:47.992Z,1009.02
2018-08-08T13:14:47.892Z,1008.98
2018-08-08T13:16:43.419Z,1009.05
2018-08-08T13:17:42.919Z,1009.03
2018-08-08T13:19:40.877Z,1008.99
2018-08-08T13:20:38.893Z,1008.98
2018-08-08T13:22:34.880Z,1009.12
2018-08-08T13:23:34.859Z,1009.05
2018-08-08T13:25:39.316Z,1009.02
2018-08-08T13:26:31.647Z,1009.01
2018-08-08T13:28:27.285Z,1009.04
2018-08-08T13:29:26.746Z,1009.01
2018-08-08T13:32:22.553Z,1009.01
2018-08-08T13:34:29.330Z,1009.09
2018-08-08T13:35:28.420Z,1009.07
2018-08-08T13:37:24.535Z,1009.10
2018-08-08T13:38:24.416Z,1009.07
2018-08-08T13:40:20.363Z,1009.06
2018-08-08T13:41:18.873Z,1009.12
2018-08-08T13:43:12.325Z,1009.03
2018-08-08T13:44:12.325Z,1009.15
2018-08-08T13:46:10.441Z,1009.16
2018-08-08T13:47:10.458Z,1009.21
2018-08-08T13:49:06.428Z,1009.18
2018-08-08T13:50:06.428Z,1009.19
2018-08-08T13:52:02.403Z,1009.28
2018-08-08T13:53:02.907Z,1009.18
2018-08-08T13:54:58.867Z,1009.26
2018-08-08T13:55:58.376Z,1009.36
2018-08-08T13:57:54.827Z,1009.32
2018-08-08T13:58:54.835Z,1009.32
2018-08-08T14:00:50.788Z,1009.44
2018-08-08T14:01:50.786Z,1009.40
2018-08-08T14:03:47.171Z,1009.31
2018-08-08T14:04:47.254Z,1009.33
2018-08-08T14:06:42.251Z,1009.31
2018-08-08T14:07:42.199Z,1009.35
2018-08-08T14:09:38.209Z,1009.32
2018-08-08T14:10:39.183Z,1009.35
2018-08-08T14:12:35.097Z,1009.37
2018-08-08T14:13:34.179Z,1009.33
2018-08-08T14:15:30.632Z,1009.32
2018-08-08T14:16:30.638Z,1009.31
2018-08-08T14:18:26.082Z,1009.29
2018-08-08T14:19:26.066Z,1009.45
2018-08-08T14:21:22.058Z,1009.49
2018-08-08T14:22:22.092Z,1009.42
2018-08-08T14:24:18.011Z,1009.35
2018-08-08T14:25:18.032Z,1009.32
2018-08-08T14:27:14.041Z,1009.32
2018-08-08T14:28:13.981Z,1009.30
2018-08-08T14:30:09.926Z,1009.36
2018-08-08T14:31:09.942Z,1009.33
2018-08-08T14:33:05.925Z,1009.36
2018-08-08T14:34:05.996Z,1009.34
2018-08-08T14:36:04.022Z,1009.40
2018-08-08T14:37:04.056Z,1009.41
2018-08-08T14:39:01.010Z,1009.42
2018-08-08T14:40:00.020Z,1009.40
2018-08-08T14:41:56.501Z,1009.46
2018-08-08T14:42:55.981Z,1009.53
2018-08-08T14:44:52.953Z,1009.46
2018-08-08T14:45:51.960Z,1009.45
2018-08-08T14:47:49.423Z,1009.51
2018-08-08T14:48:47.930Z,1009.58
2018-08-08T14:50:43.906Z,1009.57
2018-08-08T14:51:43.939Z,1009.53
2018-08-08T14:53:39.931Z,1009.49
2018-08-08T14:54:39.885Z,1009.52
2018-08-08T14:56:36.372Z,1009.59
2018-08-08T14:57:36.386Z,1009.58
2018-08-08T14:59:32.829Z,1009.57
2018-08-08T15:00:32.331Z,1009.50
2018-08-08T15:02:28.295Z,1009.56
2018-08-08T15:03:28.712Z,1009.60
2018-08-08T15:05:25.798Z,1009.54
2018-08-08T15:06:25.761Z,1009.61
2018-08-08T15:08:21.749Z,1009.64
2018-08-08T15:09:21.725Z,1009.59
2018-08-08T15:11:17.718Z,1009.55
2018-08-08T15:12:18.701Z,1009.53
2018-08-08T15:14:13.655Z,1009.62
2018-08-08T15:15:13.676Z,1009.65
2018-08-08T15:17:09.647Z,1009.58
2018-08-08T15:18:09.636Z,1009.56
2018-08-08T15:20:06.097Z,1009.60
2018-08-08T15:21:05.590Z,1009.64
2018-08-08T15:23:01.608Z,1009.63
2018-08-08T15:24:01.564Z,1009.64
2018-08-08T15:25:57.536Z,1009.64
2018-08-08T15:26:57.489Z,1009.55
2018-08-08T15:28:53.480Z,1009.55
2018-08-08T15:29:53.953Z,1009.55
2018-08-08T15:31:49.979Z,1009.59
2018-08-08T15:32:49.405Z,1009.52
2018-08-08T15:34:45.351Z,1009.57
2018-08-08T15:35:45.372Z,1009.65
2018-08-08T15:37:41.920Z,1009.54
2018-08-08T15:38:41.349Z,1009.64
2018-08-08T15:40:38.307Z,1009.75
2018-08-08T15:41:37.391Z,1009.70
2018-08-08T15:43:33.310Z,1009.73
2018-08-08T15:44:34.286Z,1009.72
2018-08-08T15:46:29.256Z,1009.68
2018-08-08T15:47:29.757Z,1009.61
2018-08-08T15:49:25.203Z,1009.66
2018-08-08T15:50:25.208Z,1009.69
2018-08-08T15:52:22.180Z,1009.78
2018-08-08T15:53:21.187Z,1009.69
2018-08-08T15:55:17.090Z,1009.66
2018-08-08T15:56:17.116Z,1009.66
2018-08-08T15:58:15.089Z,1009.65
2018-08-08T15:59:15.576Z,1009.60
2018-08-08T16:01:13.065Z,1009.60
2018-08-08T16:02:13.559Z,1009.63
2018-08-08T16:04:11.013Z,1009.70
2018-08-08T16:05:11.006Z,1009.66
2018-08-08T16:07:06.987Z,1009.67
2018-08-08T16:08:06.967Z,1009.72
2018-08-08T16:10:02.945Z,1009.72
2018-08-08T16:12:20.413Z,1009.57
2018-08-08T16:13:18.922Z,1009.64
2018-08-08T16:15:15.390Z,1009.70
2018-08-08T16:16:15.799Z,1009.73
2018-08-08T16:18:11.331Z,1009.75
2018-08-08T16:19:10.799Z,1009.71
2018-08-08T16:21:06.788Z,1009.72
2018-08-08T16:22:06.798Z,1009.71
2018-08-08T16:24:03.232Z,1009.68
2018-08-08T16:25:02.728Z,1009.72
2018-08-08T16:27:00.186Z,1009.72
2018-08-08T16:27:58.697Z,1009.66
2018-08-08T16:29:54.661Z,1009.71
2018-08-08T16:30:56.172Z,1009.66
2018-08-08T16:32:50.638Z,1009.75
2018-08-08T16:33:50.606Z,1009.70
2018-08-08T16:35:49.594Z,1009.71
2018-08-08T16:36:48.567Z,1009.73
2018-08-08T16:38:47.050Z,1009.65
2018-08-08T16:39:46.546Z,1009.62
2018-08-08T16:41:44.468Z,1009.56
2018-08-08T16:42:44.498Z,1009.51
2018-08-08T16:44:41.960Z,1009.54
2018-08-08T16:45:40.457Z,1009.55
2018-08-08T16:47:36.401Z,1009.59
2018-08-08T16:48:36.406Z,1009.55
2018-08-08T16:50:34.358Z,1009.53
2018-08-08T16:51:34.395Z,1009.54
2018-08-08T16:53:30.852Z,1009.52
2018-08-08T16:54:30.353Z,1009.52
2018-08-08T16:56:26.316Z,1009.53
2018-08-08T16:57:26.283Z,1009.54
2018-08-08T16:59:22.297Z,1009.54
2018-08-08T17:00:23.259Z,1009.47
2018-08-08T17:02:18.305Z,1009.54
2018-08-08T17:03:18.219Z,1009.48
2018-08-08T17:05:14.721Z,1009.56
2018-08-08T17:06:15.688Z,1009.55
2018-08-08T17:08:12.190Z,1009.59
2018-08-08T17:09:12.116Z,1009.60
2018-08-08T17:11:09.074Z,1009.61
2018-08-08T17:12:08.078Z,1009.59
2018-08-08T17:14:05.101Z,1009.54
2018-08-08T17:15:04.023Z,1009.58
2018-08-08T17:17:00.015Z,1009.46
2018-08-08T17:18:00.015Z,1009.48
2018-08-08T17:19:55.978Z,1009.45
2018-08-08T17:20:56.908Z,1009.37
2018-08-08T17:22:51.915Z,1009.40
2018-08-08T17:23:52.456Z,1009.38
2018-08-08T17:25:47.866Z,1009.35
2018-08-08T17:26:47.956Z,1009.38
2018-08-08T17:28:43.824Z,1009.34
2018-08-08T17:29:44.844Z,1009.39
2018-08-08T17:31:45.309Z,1009.35
2018-08-08T17:32:44.298Z,1009.36
2018-08-08T17:34:40.287Z,1009.37
2018-08-08T17:35:40.291Z,1009.32
2018-08-08T17:37:36.257Z,1009.39
2018-08-08T17:38:36.245Z,1009.43
2018-08-08T17:40:38.208Z,1009.37
2018-08-08T17:41:34.380Z,1009.33
2018-08-08T17:43:32.045Z,1009.39
2018-08-08T17:44:31.488Z,1009.39
2018-08-08T17:46:27.954Z,1009.45
2018-08-08T17:47:27.479Z,1009.44
2018-08-08T17:49:35.495Z,1009.39